createdAt,value
2023-03-06T00:02:00.942Z,9.93
2023-03-06T00:06:04.798Z,10.17
2023-03-06T00:10:05.574Z,10.27
2023-03-06T00:14:06.152Z,10.10
2023-03-06T00:18:08.444Z,10.67
2023-03-06T00:22:16.606Z,10.33
2023-03-06T00:26:17.093Z,9.80
2023-03-06T00:30:21.561Z,10.50
2023-03-06T00:34:22.085Z,10.70
2023-03-06T00:38:27.752Z,10.33
2023-03-06T00:42:32.772Z,10.70
2023-03-06T00:46:33.445Z,10.23
2023-03-06T00:50:35.283Z,10.30
2023-03-06T00:54:38.518Z,10.63
2023-03-06T00:58:39.824Z,9.80
2023-03-06T01:02:40.440Z,10.60
2023-03-06T01:06:41.096Z,10.33
2023-03-06T01:10:44.771Z,10.67
2023-03-06T01:14:45.658Z,10.53
2023-03-06T01:18:46.220Z,10.97
2023-03-06T01:22:46.921Z,10.33
2023-03-06T01:26:50.313Z,10.67
2023-03-06T01:30:50.776Z,10.30
2023-03-06T01:34:52.013Z,9.90
2023-03-06T01:38:52.607Z,11.37
2023-03-06T01:42:55.804Z,10.30
2023-03-06T01:46:56.768Z,10.70
2023-03-06T01:50:58.397Z,11.00
2023-03-06T01:55:04.717Z,10.67
2023-03-06T01:59:10.199Z,10.27
2023-03-06T02:03:17.475Z,10.30
2023-03-06T02:07:22.661Z,10.07
2023-03-06T02:11:25.920Z,10.67
2023-03-06T02:15:31.087Z,10.77
2023-03-06T02:19:48.097Z,10.73
2023-03-06T02:24:04.571Z,10.30
2023-03-06T02:28:12.134Z,11.17
2023-03-06T02:32:13.782Z,10.03
2023-03-06T02:36:19.138Z,10.60
2023-03-06T02:40:23.869Z,11.27
2023-03-06T02:44:30.702Z,9.97
2023-03-06T02:48:32.252Z,10.73
2023-03-06T02:52:33.790Z,10.83
2023-03-06T02:56:35.882Z,10.20
2023-03-06T03:00:40.230Z,10.60
2023-03-06T03:04:43.023Z,9.97
2023-03-06T03:08:44.267Z,10.43
2023-03-06T03:12:46.392Z,11.37
2023-03-06T03:16:50.579Z,10.67
2023-03-06T03:20:51.246Z,10.77
2023-03-06T03:24:52.128Z,10.43
2023-03-06T03:28:52.987Z,9.77
2023-03-06T03:32:57.890Z,9.83
2023-03-06T03:36:59.374Z,10.53
2023-03-06T03:41:01.319Z,10.40
2023-03-06T03:45:02.108Z,10.20
2023-03-06T03:49:06.183Z,9.83
2023-03-06T03:53:07.130Z,9.97
2023-03-06T03:57:08.503Z,11.07
2023-03-06T04:01:13.108Z,10.77
2023-03-06T04:05:18.977Z,10.73
2023-03-06T04:09:20.555Z,12.57
2023-03-06T04:13:22.490Z,11.90
2023-03-06T04:17:23.614Z,11.00
2023-03-06T04:21:28.502Z,10.97
2023-03-06T04:25:28.998Z,10.70
2023-03-06T04:29:29.490Z,11.27
2023-03-06T04:33:30.670Z,12.63
2023-03-06T04:37:35.287Z,11.20
2023-03-06T04:41:38.185Z,11.87
2023-03-06T04:45:39.209Z,11.07
2023-03-06T04:49:40.068Z,11.70
2023-03-06T04:53:43.138Z,11.27
2023-03-06T04:57:46.404Z,12.30
2023-03-06T05:01:47.026Z,12.53
2023-03-06T05:05:47.880Z,11.83
2023-03-06T05:09:51.328Z,12.80
2023-03-06T05:13:52.654Z,12.73
2023-03-06T05:17:53.058Z,13.10
2023-03-06T05:21:53.674Z,11.27
2023-03-06T05:25:57.176Z,12.57
2023-03-06T05:29:58.380Z,11.73
2023-03-06T05:34:00.865Z,11.63
2023-03-06T05:38:01.205Z,15.80
2023-03-06T05:42:04.605Z,14.63
2023-03-06T05:46:06.548Z,13.70
2023-03-06T05:50:10.610Z,14.63
2023-03-06T05:54:11.515Z,14.80
2023-03-06T05:58:14.604Z,15.47
2023-03-06T06:02:15.371Z,13.17
2023-03-06T06:06:17.969Z,14.17
2023-03-06T06:10:18.361Z,12.27
2023-03-06T06:14:21.379Z,13.63
2023-03-06T06:18:21.980Z,14.10
2023-03-06T06:22:22.412Z,13.70
2023-03-06T06:26:23.026Z,13.57
2023-03-06T06:30:27.702Z,14.53
2023-03-06T06:34:28.671Z,14.40
2023-03-06T06:38:29.274Z,13.77
2023-03-06T06:42:36.313Z,13.40
2023-03-06T06:51:05.834Z,15.50
2023-03-06T06:55:06.414Z,14.37
2023-03-06T06:59:15.987Z,15.10
2023-03-06T07:03:20.105Z,15.10
2023-03-06T07:07:20.815Z,15.07
2023-03-06T07:11:21.870Z,13.77
2023-03-06T07:15:23.030Z,13.63
2023-03-06T07:19:26.441Z,14.20
2023-03-06T07:23:27.891Z,13.63
2023-03-06T07:27:28.579Z,14.43
2023-03-06T07:31:30.933Z,12.83
2023-03-06T07:35:34.104Z,14.47
2023-03-06T07:39:34.337Z,14.07
2023-03-06T07:43:35.307Z,13.53
2023-03-06T07:47:39.935Z,13.90
2023-03-06T07:51:43.123Z,13.10
2023-03-06T07:55:44.678Z,14.53
2023-03-06T07:59:45.227Z,12.67
2023-03-06T08:03:46.470Z,12.93
2023-03-06T08:07:49.627Z,13.17
2023-03-06T08:11:50.229Z,13.43
2023-03-06T08:15:53.835Z,12.57
2023-03-06T08:19:54.481Z,13.77
2023-03-06T08:23:58.122Z,13.43
2023-03-06T08:27:58.426Z,12.67
2023-03-06T08:31:59.157Z,12.57
2023-03-06T08:36:02.290Z,12.33
2023-03-06T08:40:07.129Z,12.77
2023-03-06T08:44:08.465Z,11.77
2023-03-06T08:48:10.771Z,12.20
2023-03-06T08:52:11.487Z,10.97
2023-03-06T08:56:19.575Z,10.90
2023-03-06T09:00:22.221Z,11.33
2023-03-06T09:04:23.094Z,12.17
2023-03-06T09:08:23.393Z,11.13
2023-03-06T09:12:27.236Z,11.40
2023-03-06T09:16:28.927Z,10.33
2023-03-06T09:20:29.432Z,11.57
2023-03-06T09:24:29.780Z,9.60
2023-03-06T09:28:32.797Z,10.03
2023-03-06T09:32:33.244Z,10.83
2023-03-06T09:36:42.896Z,10.03
2023-03-06T09:45:14.927Z,8.77
2023-03-06T09:49:56.308Z,9.90
2023-03-06T09:54:08.473Z,9.30
2023-03-06T09:58:20.117Z,9.07
2023-03-06T10:02:34.481Z,9.27
2023-03-06T10:06:44.300Z,9.90
2023-03-06T10:10:53.953Z,9.27
2023-03-06T10:15:14.594Z,9.20
2023-03-06T10:19:21.159Z,8.70
2023-03-06T10:23:49.932Z,8.63
2023-03-06T10:27:53.311Z,8.73
2023-03-06T10:32:07.154Z,9.37
2023-03-06T10:36:18.550Z,8.60
2023-03-06T10:40:37.811Z,8.03
2023-03-06T10:44:38.333Z,7.97
2023-03-06T10:48:42.342Z,8.07
2023-03-06T10:52:45.910Z,7.87
2023-03-06T10:56:49.149Z,8.10
2023-03-06T11:00:49.930Z,8.20
2023-03-06T11:04:55.919Z,7.80
2023-03-06T11:09:17.664Z,8.37
2023-03-06T11:13:28.065Z,8.87
2023-03-06T11:17:33.513Z,8.80
2023-03-06T11:21:36.038Z,9.13
2023-03-06T11:25:44.505Z,8.93
2023-03-06T11:29:49.146Z,9.63
2023-03-06T11:33:55.695Z,9.70
2023-03-06T11:38:01.042Z,9.90
2023-03-06T11:42:20.163Z,12.00
2023-03-06T11:46:28.525Z,12.97
2023-03-06T11:50:37.621Z,13.37
2023-03-06T11:54:39.199Z,13.43
2023-03-06T11:59:12.449Z,12.93
2023-03-06T12:03:57.902Z,13.03
2023-03-06T12:08:17.327Z,13.00
2023-03-06T12:12:48.691Z,11.93
2023-03-06T12:17:20.577Z,11.47
2023-03-06T12:21:37.052Z,11.77
2023-03-06T12:25:41.820Z,12.13
2023-03-06T12:30:28.438Z,12.27
2023-03-06T12:34:56.078Z,12.73
2023-03-06T12:39:12.055Z,11.90
2023-03-06T12:43:53.815Z,11.63
2023-03-06T12:47:59.552Z,11.60
2023-03-06T12:52:05.268Z,14.47
2023-03-06T12:56:06.980Z,12.27
2023-03-06T13:00:09.482Z,10.60
2023-03-06T13:04:38.563Z,14.63
2023-03-06T13:09:21.134Z,9.07
2023-03-06T13:13:36.122Z,10.27
2023-03-06T13:17:41.987Z,8.97
2023-03-06T13:22:18.221Z,10.10
2023-03-06T13:27:05.984Z,8.00
2023-03-06T13:31:10.614Z,8.03
2023-03-06T13:35:57.829Z,8.10
2023-03-06T13:40:34.296Z,8.67
2023-03-06T13:44:49.186Z,8.07
2023-03-06T13:49:05.386Z,7.30
2023-03-06T13:53:51.049Z,7.47
2023-03-06T13:58:14.551Z,7.80
2023-03-06T14:02:44.632Z,6.90
2023-03-06T14:07:06.534Z,7.70
2023-03-06T14:11:21.485Z,7.23
2023-03-06T14:15:28.439Z,6.23
2023-03-06T14:19:39.543Z,6.93
2023-03-06T14:23:42.719Z,6.67
2023-03-06T14:27:51.676Z,6.97
2023-03-06T14:31:55.949Z,6.63
2023-03-06T14:36:03.820Z,6.10
2023-03-06T14:40:05.241Z,7.03
2023-03-06T14:44:28.160Z,7.30
2023-03-06T14:48:42.150Z,8.20
2023-03-06T14:52:46.024Z,8.13
2023-03-06T14:56:49.482Z,8.00
2023-03-06T15:00:56.770Z,8.47
2023-03-06T15:05:04.576Z,8.67
2023-03-06T15:09:20.497Z,8.60
2023-03-06T15:13:26.241Z,8.47
2023-03-06T15:17:32.254Z,9.00
2023-03-06T15:21:39.985Z,9.93
2023-03-06T15:25:43.453Z,9.77
2023-03-06T15:29:44.003Z,10.67
2023-03-06T15:33:44.450Z,10.80
2023-03-06T15:37:46.042Z,11.20
2023-03-06T15:41:49.276Z,9.47
2023-03-06T15:45:50.854Z,10.27
2023-03-06T15:49:53.392Z,10.77
2023-03-06T15:53:57.208Z,10.70
2023-03-06T15:58:09.247Z,9.97
2023-03-06T16:02:20.449Z,10.67
2023-03-06T16:06:23.615Z,12.20
2023-03-06T16:10:26.869Z,13.17
2023-03-06T16:14:30.397Z,12.03
2023-03-06T16:18:31.759Z,12.90
2023-03-06T16:22:32.028Z,11.40
2023-03-06T16:26:36.782Z,12.40
2023-03-06T16:30:40.245Z,12.13
2023-03-06T16:34:44.360Z,12.67
2023-03-06T16:38:46.484Z,11.87
2023-03-06T16:42:46.955Z,11.90
2023-03-06T16:46:53.446Z,11.60
2023-03-06T16:50:54.528Z,12.53
2023-03-06T16:54:54.844Z,14.00
2023-03-06T16:58:55.435Z,15.97
2023-03-06T17:02:59.083Z,15.13
2023-03-06T17:06:59.853Z,14.33
2023-03-06T17:11:03.439Z,18.30
2023-03-06T17:15:03.796Z,16.93
2023-03-06T17:19:06.989Z,13.77
2023-03-06T17:23:07.546Z,14.10
2023-03-06T17:27:08.155Z,12.33
2023-03-06T17:31:16.911Z,13.37
2023-03-06T17:35:20.258Z,12.40
2023-03-06T17:39:21.078Z,12.30
2023-03-06T17:43:21.814Z,10.03
2023-03-06T17:47:22.610Z,10.50
2023-03-06T17:51:26.118Z,11.50
2023-03-06T17:55:27.414Z,11.17
2023-03-06T17:59:27.935Z,11.47
2023-03-06T18:03:28.900Z,11.00
2023-03-06T18:07:32.280Z,12.60
2023-03-06T18:11:32.857Z,13.60
2023-03-06T18:15:33.242Z,13.90
2023-03-06T18:19:33.975Z,14.47
2023-03-06T18:23:37.291Z,14.03
2023-03-06T18:27:38.411Z,13.83
2023-03-06T18:31:41.179Z,13.10
2023-03-06T18:35:44.276Z,12.90
2023-03-06T18:39:48.068Z,13.47
2023-03-06T18:43:54.193Z,12.73
2023-03-06T18:47:54.569Z,12.63
2023-03-06T18:51:55.046Z,12.87
2023-03-06T18:55:58.480Z,13.00
2023-03-06T18:59:59.460Z,13.33
2023-03-06T19:04:04.751Z,14.53
2023-03-06T19:08:05.220Z,14.17
2023-03-06T19:12:09.481Z,14.67
2023-03-06T19:16:11.755Z,15.07
2023-03-06T19:20:15.828Z,14.37
2023-03-06T19:24:16.628Z,15.17
2023-03-06T19:28:19.914Z,14.33
2023-03-06T19:32:20.396Z,13.67
2023-03-06T19:36:24.497Z,15.53
2023-03-06T19:40:25.054Z,14.50
2023-03-06T19:44:28.222Z,13.93
2023-03-06T19:48:29.052Z,14.93
2023-03-06T19:52:30.802Z,15.33
2023-03-06T19:56:33.805Z,15.33
2023-03-06T20:00:38.221Z,15.37
2023-03-06T20:04:41.232Z,14.67
2023-03-06T20:08:41.889Z,16.17
2023-03-06T20:12:42.556Z,15.30
2023-03-06T20:16:46.133Z,16.03
2023-03-06T20:20:46.640Z,16.13
2023-03-06T20:24:47.110Z,15.93
2023-03-06T20:28:47.630Z,16.20
2023-03-06T20:32:51.714Z,16.17
2023-03-06T20:36:52.106Z,16.03
2023-03-06T20:40:54.814Z,15.97
2023-03-06T20:44:55.203Z,16.07
2023-03-06T20:48:59.653Z,16.40
2023-03-06T20:53:01.034Z,16.97
2023-03-06T20:57:02.306Z,15.23
2023-03-06T21:01:02.904Z,15.80
2023-03-06T21:05:06.820Z,15.57
2023-03-06T21:09:09.955Z,15.83
2023-03-06T21:13:10.617Z,16.20
2023-03-06T21:17:12.290Z,16.50
2023-03-06T21:21:20.715Z,16.97
2023-03-06T21:25:21.650Z,15.93
2023-03-06T21:29:22.064Z,14.53
2023-03-06T21:33:22.748Z,15.40
2023-03-06T21:37:26.307Z,14.37
2023-03-06T21:41:30.658Z,14.97
2023-03-06T21:45:31.459Z,14.47
2023-03-06T21:49:32.098Z,14.87
2023-03-06T21:53:35.249Z,15.33
2023-03-06T21:57:39.266Z,14.23
2023-03-06T22:01:40.287Z,14.90
2023-03-06T22:05:43.403Z,14.53
2023-03-06T22:09:46.768Z,14.17
2023-03-06T22:13:48.536Z,14.03
2023-03-06T22:17:49.933Z,14.40
2023-03-06T22:21:50.315Z,13.77
2023-03-06T22:25:53.585Z,14.20
2023-03-06T22:29:54.022Z,13.77
2023-03-06T22:33:55.540Z,13.23
2023-03-06T22:37:56.234Z,13.70
2023-03-06T22:42:01.402Z,13.50
2023-03-06T22:46:05.193Z,12.47
2023-03-06T22:50:05.943Z,12.27
2023-03-06T22:54:06.499Z,13.60
2023-03-06T22:58:10.027Z,12.13
2023-03-06T23:02:10.877Z,12.63
2023-03-06T23:06:14.596Z,12.00
2023-03-06T23:10:15.248Z,12.53
2023-03-06T23:14:37.266Z,12.77
2023-03-06T23:18:59.629Z,12.70
2023-03-06T23:23:18.623Z,11.77
2023-03-06T23:27:19.732Z,13.03
2023-03-06T23:31:28.598Z,12.30
2023-03-06T23:35:29.447Z,12.10
2023-03-06T23:39:30.592Z,12.20
2023-03-06T23:43:31.746Z,12.00
2023-03-06T23:47:37.940Z,12.37
2023-03-06T23:51:38.286Z,12.37
2023-03-06T23:55:38.791Z,12.50
2023-03-06T23:59:39.662Z,12.17
